Time;durP1;ratioP1;P1;durP2;ratioP2;P2;SDS_P1;SDS_P2;PMS_P1;PMS_P2;Temp;Humidity;BMP_temperature;BMP_pressure;BME280_temperature;BME280_humidity;BME280_pressure;Samples;Min_cycle;Max_cycle;Signal;HPM_P1;HPM_P2
2023/07/06 00:01:48;;;;;;;5.30;2.30;;;;;;;;;;5017632;28;20180;-57
2023/07/06 00:04:14;;;;;;;4.18;2.67;;;;;;;;;;5017436;28;20196;-57
2023/07/06 00:06:40;;;;;;;3.65;1.83;;;;;;;;;;5017727;28;20200;-57
2023/07/06 00:09:05;;;;;;;3.65;2.20;;;;;;;;;;5017004;28;20192;-57
2023/07/06 00:11:36;;;;;;;2.97;2.22;;;;;;;;;;5017992;28;20212;-56
2023/07/06 00:14:02;;;;;;;3.03;2.03;;;;;;;;;;5017857;28;20241;-57
2023/07/06 00:16:28;;;;;;;3.03;2.20;;;;;;;;;;5017547;28;20189;-56
2023/07/06 00:18:56;;;;;;;4.03;2.20;;;;;;;;;;5019939;28;20245;-56
2023/07/06 00:21:24;;;;;;;4.00;2.65;;;;;;;;;;5011707;28;20192;-56
2023/07/06 00:23:50;;;;;;;3.50;2.22;;;;;;;;;;5017383;28;20180;-56
2023/07/06 00:26:20;;;;;;;3.15;2.38;;;;;;;;;;5000121;28;20247;-56
2023/07/06 00:28:48;;;;;;;5.30;2.22;;;;;;;;;;5017055;28;20172;-56
2023/07/06 00:31:21;;;;;;;2.65;2.08;;;;;;;;;;5017323;28;20188;-57
2023/07/06 00:33:46;;;;;;;3.15;2.15;;;;;;;;;;5017187;28;20666;-57
2023/07/06 00:36:12;;;;;;;3.15;2.10;;;;;;;;;;5016484;28;20276;-57
2023/07/06 00:38:38;;;;;;;4.13;2.33;;;;;;;;;;5019516;28;20210;-57
2023/07/06 00:41:04;;;;;;;3.15;2.10;;;;;;;;;;5016547;28;20234;-57
2023/07/06 00:43:47;;;;;;;2.35;2.00;;;;;;;;;;5017367;28;20692;-57
2023/07/06 00:46:14;;;;;;;3.65;2.13;;;;;;;;;;5013794;28;20188;-58
2023/07/06 00:48:44;;;;;;;2.90;2.22;;;;;;;;;;5018924;28;20215;-57
2023/07/06 00:51:22;;;;;;;2.17;1.73;;;;;;;;;;5009057;28;20177;-57
2023/07/06 00:53:51;;;;;;;2.80;1.98;;;;;;;;;;5016124;28;20184;-57
2023/07/06 00:56:18;;;;;;;2.97;2.30;;;;;;;;;;5017068;28;20458;-57
2023/07/06 00:58:45;;;;;;;2.80;1.90;;;;;;;;;;5016630;28;20202;-57
2023/07/06 01:01:12;;;;;;;2.00;1.80;;;;;;;;;;5016697;28;20255;-57
2023/07/06 01:03:46;;;;;;;5.25;2.17;;;;;;;;;;5015622;28;20458;-57
2023/07/06 01:06:14;;;;;;;5.53;2.30;;;;;;;;;;5016908;28;20547;-57
2023/07/06 01:08:41;;;;;;;3.33;1.90;;;;;;;;;;5022004;28;20184;-57
2023/07/06 01:11:09;;;;;;;2.97;2.03;;;;;;;;;;5017081;28;20219;-56
2023/07/06 01:13:35;;;;;;;4.22;2.08;;;;;;;;;;5016344;28;20177;-57
2023/07/06 01:16:11;;;;;;;3.75;2.60;;;;;;;;;;5016651;28;20452;-56
2023/07/06 01:18:47;;;;;;;2.80;2.20;;;;;;;;;;5016406;28;20494;-56
2023/07/06 01:21:17;;;;;;;2.88;2.10;;;;;;;;;;5009239;28;20278;-56
2023/07/06 01:23:57;;;;;;;3.45;2.15;;;;;;;;;;5015906;28;20185;-56
2023/07/06 01:26:41;;;;;;;2.72;1.85;;;;;;;;;;5016451;28;20292;-57
2023/07/06 01:29:25;;;;;;;2.10;1.88;;;;;;;;;;5015814;28;20188;-56
2023/07/06 01:31:56;;;;;;;3.22;2.20;;;;;;;;;;5016438;28;20238;-56
2023/07/06 01:34:25;;;;;;;2.85;1.88;;;;;;;;;;5015601;28;20453;-57
2023/07/06 01:36:59;;;;;;;2.17;1.63;;;;;;;;;;5015620;28;20246;-56
2023/07/06 01:39:28;;;;;;;2.72;2.00;;;;;;;;;;5016106;28;20187;-56
2023/07/06 01:42:19;;;;;;;3.13;2.10;;;;;;;;;;5014843;28;20184;-56
2023/07/06 01:44:49;;;;;;;2.95;2.15;;;;;;;;;;5015613;28;20235;-56
2023/07/06 01:47:16;;;;;;;6.18;1.88;;;;;;;;;;5016096;28;20551;-56
2023/07/06 01:49:42;;;;;;;4.88;2.50;;;;;;;;;;5015892;28;20263;-57
2023/07/06 01:52:14;;;;;;;2.60;1.80;;;;;;;;;;5014723;28;20675;-57
2023/07/06 01:54:42;;;;;;;2.47;1.98;;;;;;;;;;5014885;28;20564;-57
2023/07/06 01:57:13;;;;;;;2.35;1.90;;;;;;;;;;5013955;28;20188;-57
2023/07/06 01:59:46;;;;;;;2.60;2.20;;;;;;;;;;5020147;28;20227;-56
2023/07/06 02:02:12;;;;;;;1.98;1.65;;;;;;;;;;5014000;28;20579;-57
2023/07/06 02:04:43;;;;;;;3.20;2.17;;;;;;;;;;5015647;28;20231;-56
2023/07/06 02:07:09;;;;;;;2.35;1.90;;;;;;;;;;5015115;28;20556;-56
2023/07/06 02:09:45;;;;;;;5.82;2.40;;;;;;;;;;5015290;28;20191;-56
2023/07/06 02:12:12;;;;;;;3.10;2.35;;;;;;;;;;5015449;28;20176;-57
2023/07/06 02:14:38;;;;;;;4.55;2.05;;;;;;;;;;5015380;28;20226;-57
2023/07/06 02:17:06;;;;;;;2.55;1.95;;;;;;;;;;5015044;28;20192;-57
2023/07/06 02:19:35;;;;;;;3.67;2.15;;;;;;;;;;5015259;28;20599;-57
2023/07/06 02:22:03;;;;;;;3.17;2.03;;;;;;;;;;5015364;28;20193;-57
2023/07/06 02:24:29;;;;;;;3.85;1.98;;;;;;;;;;5014672;28;20192;-57
2023/07/06 02:26:55;;;;;;;3.63;1.70;;;;;;;;;;5014711;28;20226;-56
2023/07/06 02:29:22;;;;;;;2.90;1.90;;;;;;;;;;4998088;28;20471;-56
2023/07/06 02:31:48;;;;;;;2.80;2.00;;;;;;;;;;5015132;28;20180;-56
2023/07/06 02:34:14;;;;;;;3.65;2.10;;;;;;;;;;5014897;28;20258;-56
2023/07/06 02:36:40;;;;;;;3.60;2.22;;;;;;;;;;5014323;28;20267;-56
2023/07/06 02:39:06;;;;;;;3.05;1.90;;;;;;;;;;5018193;28;20271;-56
2023/07/06 02:41:32;;;;;;;2.25;1.75;;;;;;;;;;5014593;28;20200;-56
2023/07/06 02:43:58;;;;;;;2.63;1.73;;;;;;;;;;5013780;28;20194;-56
2023/07/06 02:46:24;;;;;;;2.03;1.65;;;;;;;;;;4989924;28;20181;-57
2023/07/06 02:48:52;;;;;;;2.83;2.20;;;;;;;;;;5014356;28;20207;-56
2023/07/06 02:51:18;;;;;;;2.03;1.60;;;;;;;;;;5014662;28;20291;-56
2023/07/06 02:53:45;;;;;;;2.30;1.80;;;;;;;;;;5014585;28;20267;-57
2023/07/06 02:56:11;;;;;;;2.53;2.05;;;;;;;;;;5014530;28;20176;-57
2023/07/06 02:58:37;;;;;;;2.17;1.65;;;;;;;;;;5017659;28;20195;-57
2023/07/06 03:01:04;;;;;;;2.85;2.13;;;;;;;;;;5011301;28;20646;-57
2023/07/06 03:03:30;;;;;;;2.60;1.90;;;;;;;;;;5015081;28;20271;-56
2023/07/06 03:05:56;;;;;;;2.83;2.10;;;;;;;;;;5014976;28;20221;-56
2023/07/06 03:08:22;;;;;;;2.83;1.98;;;;;;;;;;5020646;28;20176;-57
2023/07/06 03:10:48;;;;;;;2.10;1.90;;;;;;;;;;5014709;28;20191;-57
2023/07/06 03:13:14;;;;;;;4.07;2.03;;;;;;;;;;5013708;28;20211;-57
2023/07/06 03:15:41;;;;;;;2.05;1.80;;;;;;;;;;5017440;28;20196;-56
2023/07/06 03:18:08;;;;;;;1.92;1.70;;;;;;;;;;5013905;28;20176;-56
2023/07/06 03:20:37;;;;;;;2.42;1.67;;;;;;;;;;5013819;28;20267;-56
2023/07/06 03:23:03;;;;;;;2.90;2.10;;;;;;;;;;5015194;28;20199;-57
2023/07/06 03:25:29;;;;;;;2.97;1.77;;;;;;;;;;5014374;28;20218;-56
2023/07/06 03:27:56;;;;;;;2.50;2.25;;;;;;;;;;5013592;28;20526;-56
2023/07/06 03:30:22;;;;;;;2.55;1.95;;;;;;;;;;5014694;28;20220;-56
2023/07/06 03:32:48;;;;;;;2.25;1.90;;;;;;;;;;5014761;28;20176;-56
2023/07/06 03:35:14;;;;;;;3.08;2.08;;;;;;;;;;5014108;28;20263;-56
2023/07/06 03:37:45;;;;;;;5.38;2.67;;;;;;;;;;5013411;28;20188;-56
2023/07/06 03:40:11;;;;;;;10.35;3.40;;;;;;;;;;5014425;28;20176;-56
2023/07/06 03:42:39;;;;;;;8.90;3.28;;;;;;;;;;5014062;28;20180;-56
2023/07/06 03:45:05;;;;;;;7.40;3.10;;;;;;;;;;5014236;28;20192;-56
2023/07/06 03:47:33;;;;;;;6.95;3.20;;;;;;;;;;5013323;28;20583;-56
2023/07/06 03:49:59;;;;;;;6.97;2.88;;;;;;;;;;5017077;28;20259;-56
2023/07/06 03:52:25;;;;;;;6.72;3.00;;;;;;;;;;5022664;28;20607;-56
2023/07/06 03:54:51;;;;;;;5.20;2.47;;;;;;;;;;5013638;28;20275;-56
2023/07/06 03:57:17;;;;;;;5.78;3.13;;;;;;;;;;5012279;28;20235;-56
2023/07/06 03:59:43;;;;;;;7.75;3.20;;;;;;;;;;5013670;28;20212;-56
2023/07/06 04:02:09;;;;;;;8.02;2.80;;;;;;;;;;5013780;28;20196;-56
2023/07/06 04:04:35;;;;;;;7.90;2.63;;;;;;;;;;5013491;28;20266;-56
2023/07/06 04:07:02;;;;;;;6.93;2.80;;;;;;;;;;5013408;28;20197;-56
2023/07/06 04:09:28;;;;;;;7.45;2.55;;;;;;;;;;5014007;28;20892;-56
2023/07/06 04:11:54;;;;;;;8.20;2.17;;;;;;;;;;5013758;28;20169;-56
2023/07/06 04:14:25;;;;;;;6.30;2.80;;;;;;;;;;5013683;28;20431;-57
2023/07/06 04:16:54;;;;;;;9.65;2.60;;;;;;;;;;5016019;28;20183;-56
2023/07/06 04:19:21;;;;;;;7.43;2.40;;;;;;;;;;5017193;28;20177;-56
2023/07/06 04:21:47;;;;;;;8.50;2.80;;;;;;;;;;5017591;28;20227;-56
2023/07/06 04:24:13;;;;;;;6.97;2.50;;;;;;;;;;5016356;28;20283;-56
2023/07/06 04:26:40;;;;;;;6.70;2.63;;;;;;;;;;5017289;28;20259;-57
2023/07/06 04:29:09;;;;;;;6.95;2.78;;;;;;;;;;5016879;28;20181;-56
2023/07/06 04:31:37;;;;;;;8.48;2.67;;;;;;;;;;5017180;28;20223;-56
2023/07/06 04:34:03;;;;;;;6.53;2.78;;;;;;;;;;5017357;28;20181;-57
2023/07/06 04:36:31;;;;;;;7.93;2.97;;;;;;;;;;5017064;28;20180;-56
2023/07/06 04:38:59;;;;;;;7.18;2.88;;;;;;;;;;5016459;28;20548;-56
2023/07/06 04:41:25;;;;;;;5.00;2.17;;;;;;;;;;5017373;28;20176;-56
2023/07/06 04:43:52;;;;;;;5.78;2.17;;;;;;;;;;5016718;28;20176;-56
2023/07/06 04:46:17;;;;;;;5.82;2.28;;;;;;;;;;5016778;28;20552;-56
2023/07/06 04:48:44;;;;;;;5.57;2.40;;;;;;;;;;5016710;28;20230;-56
2023/07/06 04:51:11;;;;;;;5.35;2.80;;;;;;;;;;5016796;28;20173;-56
2023/07/06 04:53:38;;;;;;;4.90;2.40;;;;;;;;;;5016770;28;20232;-56
2023/07/06 04:56:04;;;;;;;3.80;2.13;;;;;;;;;;5016693;28;20184;-56
2023/07/06 04:58:30;;;;;;;5.53;2.45;;;;;;;;;;5016085;28;20180;-56
2023/07/06 05:00:57;;;;;;;4.43;2.45;;;;;;;;;;5016292;28;20230;-56
2023/07/06 05:03:23;;;;;;;5.25;2.78;;;;;;;;;;5016195;28;20242;-56
2023/07/06 05:05:49;;;;;;;4.13;2.20;;;;;;;;;;5016745;28;20208;-56
2023/07/06 05:08:16;;;;;;;3.42;2.00;;;;;;;;;;5016331;28;20184;-56
2023/07/06 05:10:43;;;;;;;2.53;2.28;;;;;;;;;;5016926;28;20200;-56
2023/07/06 05:13:09;;;;;;;5.45;2.08;;;;;;;;;;5016181;28;20235;-56
2023/07/06 05:15:36;;;;;;;5.65;2.47;;;;;;;;;;5016734;28;20184;-56
2023/07/06 05:18:03;;;;;;;2.35;1.80;;;;;;;;;;5015997;28;20185;-56
2023/07/06 05:20:31;;;;;;;5.25;2.65;;;;;;;;;;5016460;28;20184;-56
2023/07/06 05:22:57;;;;;;;3.25;2.08;;;;;;;;;;5016181;28;20635;-56
2023/07/06 05:25:23;;;;;;;4.13;2.17;;;;;;;;;;5016216;28;20208;-56
2023/07/06 05:27:49;;;;;;;6.07;2.45;;;;;;;;;;5015399;28;20181;-56
2023/07/06 05:30:15;;;;;;;4.20;2.13;;;;;;;;;;5016245;28;20187;-56
2023/07/06 05:32:41;;;;;;;4.10;2.25;;;;;;;;;;5016266;28;20184;-56
2023/07/06 05:35:07;;;;;;;3.63;2.30;;;;;;;;;;5016080;28;20234;-56
2023/07/06 05:37:33;;;;;;;4.20;2.45;;;;;;;;;;5015402;28;20259;-57
2023/07/06 05:40:02;;;;;;;5.20;2.80;;;;;;;;;;4999000;28;20203;-56
2023/07/06 05:42:28;;;;;;;3.72;2.30;;;;;;;;;;5016080;28;20188;-56
2023/07/06 05:44:54;;;;;;;3.45;2.33;;;;;;;;;;5016000;28;20212;-56
2023/07/06 05:47:20;;;;;;;2.63;2.05;;;;;;;;;;5015416;28;20184;-56
2023/07/06 05:49:46;;;;;;;3.80;2.05;;;;;;;;;;5015502;28;20184;-57
2023/07/06 05:52:12;;;;;;;3.17;2.20;;;;;;;;;;5015707;28;20192;-56
2023/07/06 05:54:39;;;;;;;3.30;2.10;;;;;;;;;;5015717;28;20192;-56
2023/07/06 05:57:06;;;;;;;3.85;2.22;;;;;;;;;;5014966;28;20295;-56
2023/07/06 05:59:32;;;;;;;5.13;2.45;;;;;;;;;;5015709;28;20189;-56
2023/07/06 06:01:59;;;;;;;3.70;2.25;;;;;;;;;;5015506;28;20195;-56
2023/07/06 06:04:28;;;;;;;3.90;2.20;;;;;;;;;;5015485;28;20202;-56
2023/07/06 06:06:56;;;;;;;4.32;2.03;;;;;;;;;;5015078;28;20448;-56
2023/07/06 06:09:23;;;;;;;3.53;1.85;;;;;;;;;;5015229;28;20606;-56
2023/07/06 06:11:49;;;;;;;2.47;1.77;;;;;;;;;;5015517;28;20193;-56
2023/07/06 06:14:15;;;;;;;5.40;2.10;;;;;;;;;;5015605;28;20188;-56
2023/07/06 06:16:42;;;;;;;4.68;2.65;;;;;;;;;;5015515;28;20181;-56
2023/07/06 06:19:08;;;;;;;4.35;1.70;;;;;;;;;;5014309;28;20848;-56
2023/07/06 06:21:34;;;;;;;2.25;1.67;;;;;;;;;;5014923;28;20200;-56
2023/07/06 06:24:01;;;;;;;2.58;1.92;;;;;;;;;;5014573;28;20215;-56
2023/07/06 06:26:29;;;;;;;3.38;2.00;;;;;;;;;;5015241;28;20195;-56
2023/07/06 06:28:55;;;;;;;2.03;1.65;;;;;;;;;;5015064;28;20579;-56
2023/07/06 06:31:21;;;;;;;3.25;1.90;;;;;;;;;;5015216;28;20326;-56
2023/07/06 06:33:47;;;;;;;4.50;2.20;;;;;;;;;;5014974;28;20856;-56
2023/07/06 06:36:13;;;;;;;2.25;1.80;;;;;;;;;;5014594;28;20185;-56
2023/07/06 06:38:39;;;;;;;2.63;1.55;;;;;;;;;;5013799;28;20279;-56
2023/07/06 06:41:07;;;;;;;2.05;1.40;;;;;;;;;;5014968;28;20307;-56
2023/07/06 06:43:36;;;;;;;2.22;1.60;;;;;;;;;;5015012;28;20181;-56
2023/07/06 06:46:02;;;;;;;3.50;2.10;;;;;;;;;;5014764;28;20483;-56
2023/07/06 06:48:28;;;;;;;3.10;1.80;;;;;;;;;;5014407;28;20184;-56
2023/07/06 06:50:56;;;;;;;1.50;1.30;;;;;;;;;;5014593;28;20188;-56
2023/07/06 06:53:22;;;;;;;2.70;2.00;;;;;;;;;;5014429;28;20548;-56
2023/07/06 06:55:48;;;;;;;1.70;1.60;;;;;;;;;;5009252;28;20451;-56
2023/07/06 06:58:15;;;;;;;1.90;1.60;;;;;;;;;;5013520;28;20188;-56
2023/07/06 07:00:41;;;;;;;1.95;1.85;;;;;;;;;;5014727;28;20188;-56
2023/07/06 07:03:11;;;;;;;1.55;1.45;;;;;;;;;;5014831;28;20196;-56
2023/07/06 07:05:37;;;;;;;4.25;2.28;;;;;;;;;;5013747;28;20208;-56
2023/07/06 07:08:03;;;;;;;1.92;1.45;;;;;;;;;;5013613;28;20196;-56
2023/07/06 07:10:29;;;;;;;2.30;1.35;;;;;;;;;;5014231;28;20286;-56
2023/07/06 07:12:55;;;;;;;1.80;1.52;;;;;;;;;;5013893;28;20231;-56
2023/07/06 07:15:21;;;;;;;1.77;1.35;;;;;;;;;;5012849;28;20176;-58
2023/07/06 07:17:47;;;;;;;2.35;1.60;;;;;;;;;;5011138;28;20224;-55
2023/07/06 07:20:14;;;;;;;2.95;1.52;;;;;;;;;;4996577;28;20621;-55
2023/07/06 07:22:41;;;;;;;2.33;1.45;;;;;;;;;;5013216;28;20223;-55
2023/07/06 07:25:07;;;;;;;3.08;1.77;;;;;;;;;;5012970;28;20211;-55
2023/07/06 07:27:36;;;;;;;3.42;1.52;;;;;;;;;;5012742;28;20243;-55
2023/07/06 07:30:03;;;;;;;2.30;1.50;;;;;;;;;;5014213;28;20223;-55
2023/07/06 07:32:29;;;;;;;3.10;1.80;;;;;;;;;;5014180;28;20183;-55
2023/07/06 07:34:56;;;;;;;1.55;1.45;;;;;;;;;;5013852;28;20207;-55
2023/07/06 07:37:21;;;;;;;2.83;1.52;;;;;;;;;;5013676;28;20263;-55
2023/07/06 07:39:48;;;;;;;3.85;1.40;;;;;;;;;;5014679;28;20263;-55
2023/07/06 07:42:16;;;;;;;2.97;1.50;;;;;;;;;;5013792;28;20231;-56
2023/07/06 07:44:45;;;;;;;1.50;1.30;;;;;;;;;;5014666;28;20473;-55
2023/07/06 07:47:11;;;;;;;3.53;1.70;;;;;;;;;;5013603;28;20184;-55
2023/07/06 07:49:37;;;;;;;1.98;1.40;;;;;;;;;;5013947;28;20184;-55
2023/07/06 07:52:04;;;;;;;2.95;1.63;;;;;;;;;;5016779;28;20286;-55
2023/07/06 07:54:30;;;;;;;2.78;1.65;;;;;;;;;;5018191;28;20183;-55
2023/07/06 07:56:57;;;;;;;3.58;1.75;;;;;;;;;;5017403;28;20295;-55
2023/07/06 07:59:26;;;;;;;2.25;1.70;;;;;;;;;;5017717;28;20208;-56
2023/07/06 08:01:53;;;;;;;2.78;1.70;;;;;;;;;;5017604;28;20195;-55
2023/07/06 08:04:20;;;;;;;3.13;1.85;;;;;;;;;;5018096;28;20216;-56
2023/07/06 08:06:46;;;;;;;3.33;2.20;;;;;;;;;;5017535;28;20195;-56
2023/07/06 08:09:13;;;;;;;4.65;1.70;;;;;;;;;;5017211;28;20204;-56
2023/07/06 08:11:41;;;;;;;3.25;1.90;;;;;;;;;;5017697;28;20176;-55
2023/07/06 08:14:11;;;;;;;4.18;1.77;;;;;;;;;;5017881;28;20231;-55
2023/07/06 08:16:37;;;;;;;2.95;1.67;;;;;;;;;;5016997;28;20188;-56
2023/07/06 08:19:05;;;;;;;2.80;1.95;;;;;;;;;;5017268;28;20271;-56
2023/07/06 08:21:31;;;;;;;4.45;2.08;;;;;;;;;;5017134;28;20181;-56
2023/07/06 08:23:58;;;;;;;2.88;1.85;;;;;;;;;;5017455;28;20207;-56
2023/07/06 08:26:24;;;;;;;4.03;2.13;;;;;;;;;;5017406;28;20204;-56
2023/07/06 08:28:50;;;;;;;2.30;1.80;;;;;;;;;;5016886;28;20221;-56
2023/07/06 08:31:18;;;;;;;3.35;1.58;;;;;;;;;;5017295;28;20203;-56
2023/07/06 08:33:45;;;;;;;2.42;1.73;;;;;;;;;;5017211;28;20422;-56
2023/07/06 08:36:11;;;;;;;1.92;1.50;;;;;;;;;;5017277;28;20184;-56
2023/07/06 08:38:37;;;;;;;3.42;1.70;;;;;;;;;;5016669;28;20496;-56
2023/07/06 08:41:06;;;;;;;2.90;1.45;;;;;;;;;;5017480;28;20223;-56
2023/07/06 08:43:32;;;;;;;2.17;1.50;;;;;;;;;;5016664;28;20231;-56
2023/07/06 08:46:03;;;;;;;3.13;1.92;;;;;;;;;;5017224;28;20646;-56
2023/07/06 08:48:31;;;;;;;1.60;1.50;;;;;;;;;;5016017;28;20443;-56
2023/07/06 08:51:12;;;;;;;3.75;1.60;;;;;;;;;;5017080;28;20231;-56
2023/07/06 08:53:42;;;;;;;2.60;1.50;;;;;;;;;;5016668;28;20225;-56
2023/07/06 08:56:12;;;;;;;2.33;1.70;;;;;;;;;;5016423;28;20192;-56
2023/07/06 08:58:41;;;;;;;2.30;1.70;;;;;;;;;;5016467;28;20181;-56
2023/07/06 09:01:12;;;;;;;3.95;1.40;;;;;;;;;;5016542;28;20185;-56
2023/07/06 09:03:44;;;;;;;3.40;1.75;;;;;;;;;;5016441;28;20192;-56
2023/07/06 09:06:12;;;;;;;3.50;1.80;;;;;;;;;;5016388;28;20216;-56
2023/07/06 09:08:41;;;;;;;2.60;1.55;;;;;;;;;;5015912;28;20184;-55
2023/07/06 09:11:07;;;;;;;2.28;1.90;;;;;;;;;;5016902;28;20192;-55
2023/07/06 09:13:42;;;;;;;3.67;1.70;;;;;;;;;;5016671;28;20227;-55
2023/07/06 09:16:09;;;;;;;2.28;1.52;;;;;;;;;;5016440;28;20230;-55
2023/07/06 09:18:36;;;;;;;3.53;1.92;;;;;;;;;;5016058;28;20189;-55
2023/07/06 09:21:02;;;;;;;1.95;1.50;;;;;;;;;;5016301;28;20176;-56
2023/07/06 09:23:29;;;;;;;2.92;1.95;;;;;;;;;;5016182;28;20196;-56
2023/07/06 09:25:56;;;;;;;1.50;1.40;;;;;;;;;;5015616;28;20208;-56
2023/07/06 09:28:23;;;;;;;2.90;1.60;;;;;;;;;;5016139;28;20563;-56
2023/07/06 09:30:50;;;;;;;2.88;1.90;;;;;;;;;;5016645;28;20181;-56
2023/07/06 09:33:23;;;;;;;1.92;1.73;;;;;;;;;;5016386;28;20176;-56
2023/07/06 09:35:52;;;;;;;2.50;1.75;;;;;;;;;;5016237;28;20176;-56
2023/07/06 09:38:18;;;;;;;2.45;1.48;;;;;;;;;;5015215;28;20172;-56
2023/07/06 09:40:45;;;;;;;2.03;1.52;;;;;;;;;;5015912;28;20305;-56
2023/07/06 09:43:28;;;;;;;1.40;1.30;;;;;;;;;;4998692;28;20486;-56
2023/07/06 09:45:55;;;;;;;4.45;1.55;;;;;;;;;;5015898;28;20212;-56
2023/07/06 09:48:26;;;;;;;3.35;1.70;;;;;;;;;;5015401;28;20172;-56
2023/07/06 09:50:55;;;;;;;2.00;1.73;;;;;;;;;;5015490;28;20184;-56
2023/07/06 09:53:24;;;;;;;3.72;1.90;;;;;;;;;;5015527;28;20185;-56
2023/07/06 09:55:50;;;;;;;4.28;1.88;;;;;;;;;;5015407;28;20267;-56
2023/07/06 09:58:20;;;;;;;3.17;1.70;;;;;;;;;;5015269;28;20279;-56
2023/07/06 10:00:49;;;;;;;2.17;1.83;;;;;;;;;;5016047;28;20199;-56
2023/07/06 10:03:25;;;;;;;1.50;1.40;;;;;;;;;;5015316;28;20226;-56
2023/07/06 10:05:58;;;;;;;3.17;1.70;;;;;;;;;;5015459;28;20200;-56
2023/07/06 10:08:30;;;;;;;2.15;1.63;;;;;;;;;;5015226;28;20559;-56
2023/07/06 10:11:09;;;;;;;2.40;1.65;;;;;;;;;;5015681;28;20286;-56
2023/07/06 10:13:35;;;;;;;2.25;1.90;;;;;;;;;;5006928;28;20192;-56
2023/07/06 10:16:11;;;;;;;2.10;1.52;;;;;;;;;;5015456;28;20211;-56
2023/07/06 10:18:41;;;;;;;1.90;1.42;;;;;;;;;;5015128;28;20486;-56
2023/07/06 10:21:17;;;;;;;1.52;1.40;;;;;;;;;;5015485;28;20455;-56
2023/07/06 10:23:52;;;;;;;1.95;1.30;;;;;;;;;;5013839;28;20451;-55
2023/07/06 10:26:32;;;;;;;1.80;1.42;;;;;;;;;;5013630;28;20200;-56
2023/07/06 10:29:01;;;;;;;3.10;1.83;;;;;;;;;;5014676;28;20639;-56
2023/07/06 10:31:33;;;;;;;4.88;1.90;;;;;;;;;;5020998;28;20185;-56
2023/07/06 10:34:15;;;;;;;3.25;1.70;;;;;;;;;;5016693;28;20682;-56
2023/07/06 10:36:42;;;;;;;3.60;1.40;;;;;;;;;;5013913;28;20186;-56
2023/07/06 10:39:25;;;;;;;2.10;1.65;;;;;;;;;;5014541;28;20722;-56
2023/07/06 10:42:02;;;;;;;2.00;1.50;;;;;;;;;;5015205;28;20255;-56
2023/07/06 10:44:41;;;;;;;2.55;1.83;;;;;;;;;;5016774;28;20282;-56
2023/07/06 10:47:08;;;;;;;2.45;1.73;;;;;;;;;;5014514;28;20211;-56
2023/07/06 10:49:54;;;;;;;3.53;1.70;;;;;;;;;;5015205;28;20181;-55
2023/07/06 10:52:31;;;;;;;3.10;1.88;;;;;;;;;;5014839;28;20180;-54
2023/07/06 10:54:57;;;;;;;2.35;1.63;;;;;;;;;;5014530;28;20218;-55
2023/07/06 10:57:22;;;;;;;2.45;1.60;;;;;;;;;;5018536;28;20270;-55
2023/07/06 10:59:48;;;;;;;5.30;2.35;;;;;;;;;;5014904;28;20204;-55
2023/07/06 11:02:17;;;;;;;2.15;1.73;;;;;;;;;;5014999;28;20865;-56
2023/07/06 11:04:51;;;;;;;4.05;2.10;;;;;;;;;;5014420;28;20242;-56
2023/07/06 11:07:53;;;;;;;5.00;1.65;;;;;;;;;;5013581;28;20404;-56
2023/07/06 11:10:32;;;;;;;2.17;1.60;;;;;;;;;;4935477;29;20211;-56
2023/07/06 11:12:59;;;;;;;1.80;1.50;;;;;;;;;;5005455;28;20558;-56
2023/07/06 11:15:46;;;;;;;3.70;1.92;;;;;;;;;;5018533;28;20208;-56
2023/07/06 11:18:28;;;;;;;2.35;1.80;;;;;;;;;;5000944;28;20459;-56
2023/07/06 11:21:03;;;;;;;2.72;1.75;;;;;;;;;;5014551;28;20176;-56
2023/07/06 11:23:28;;;;;;;2.53;1.70;;;;;;;;;;5014405;28;20259;-56
2023/07/06 11:25:55;;;;;;;4.88;1.70;;;;;;;;;;5013850;28;20650;-55
2023/07/06 11:28:23;;;;;;;2.00;1.35;;;;;;;;;;5013918;28;20266;-56
2023/07/06 11:31:08;;;;;;;2.50;1.70;;;;;;;;;;5014584;28;20199;-56
2023/07/06 11:34:06;;;;;;;2.55;1.50;;;;;;;;;;5014602;28;20235;-56
2023/07/06 11:36:55;;;;;;;3.53;1.88;;;;;;;;;;4945895;28;20204;-53
2023/07/06 11:39:59;;;;;;;3.03;1.63;;;;;;;;;;5014524;28;20560;-54
2023/07/06 11:42:43;;;;;;;3.53;1.35;;;;;;;;;;4933338;29;20256;-54
2023/07/06 11:45:21;;;;;;;4.45;1.73;;;;;;;;;;4934588;29;20218;-54
2023/07/06 11:48:07;;;;;;;6.38;1.65;;;;;;;;;;4988230;28;20601;-54
2023/07/06 11:50:36;;;;;;;3.10;1.50;;;;;;;;;;5014045;28;20259;-54
2023/07/06 11:53:11;;;;;;;6.90;2.10;;;;;;;;;;5013971;28;20200;-54
2023/07/06 11:56:04;;;;;;;4.13;1.70;;;;;;;;;;5013240;28;20234;-54
2023/07/06 11:58:43;;;;;;;4.90;1.90;;;;;;;;;;5012949;28;20366;-54
2023/07/06 12:01:20;;;;;;;3.60;2.20;;;;;;;;;;5013518;28;20685;-54
2023/07/06 12:03:47;;;;;;;2.10;1.42;;;;;;;;;;5013166;28;20208;-54
2023/07/06 12:06:15;;;;;;;3.13;1.60;;;;;;;;;;5013741;28;20208;-54
2023/07/06 12:08:40;;;;;;;2.03;1.42;;;;;;;;;;5013380;28;20176;-54
2023/07/06 12:11:06;;;;;;;2.42;1.70;;;;;;;;;;5013959;28;20622;-54
2023/07/06 12:13:39;;;;;;;4.15;2.22;;;;;;;;;;5013804;28;20184;-54
2023/07/06 12:16:08;;;;;;;2.47;1.63;;;;;;;;;;5013765;28;20198;-54
2023/07/06 12:18:34;;;;;;;3.13;1.80;;;;;;;;;;5013541;28;20185;-54
2023/07/06 12:21:01;;;;;;;4.93;1.70;;;;;;;;;;5013638;28;20580;-54
2023/07/06 12:23:27;;;;;;;3.13;1.80;;;;;;;;;;5013647;28;20263;-54
2023/07/06 12:25:54;;;;;;;5.43;1.90;;;;;;;;;;5013830;28;20232;-54
2023/07/06 12:28:20;;;;;;;2.20;1.67;;;;;;;;;;5020085;28;20464;-54
2023/07/06 12:30:49;;;;;;;1.90;1.60;;;;;;;;;;5014212;28;20192;-54
2023/07/06 12:33:16;;;;;;;2.63;1.42;;;;;;;;;;5014015;28;20200;-54
2023/07/06 12:35:42;;;;;;;2.85;1.58;;;;;;;;;;5013119;28;20220;-54
2023/07/06 12:38:12;;;;;;;3.47;1.77;;;;;;;;;;5015738;28;20196;-54
2023/07/06 12:40:39;;;;;;;2.00;1.40;;;;;;;;;;5017287;28;20424;-54
2023/07/06 12:43:05;;;;;;;3.63;1.75;;;;;;;;;;5017036;28;20173;-54
2023/07/06 12:45:32;;;;;;;2.78;1.70;;;;;;;;;;5016687;28;20266;-54
2023/07/06 12:48:03;;;;;;;2.53;1.50;;;;;;;;;;5016649;28;20199;-54
2023/07/06 12:50:35;;;;;;;2.58;1.40;;;;;;;;;;5018811;28;20211;-54
2023/07/06 12:53:05;;;;;;;2.25;1.67;;;;;;;;;;5023842;28;20238;-54
2023/07/06 12:55:32;;;;;;;1.30;1.20;;;;;;;;;;5017015;28;20594;-54
2023/07/06 12:58:13;;;;;;;1.88;1.38;;;;;;;;;;5017188;28;20184;-54
2023/07/06 13:00:39;;;;;;;3.85;1.40;;;;;;;;;;5012488;28;20544;-54
2023/07/06 13:03:10;;;;;;;1.55;1.30;;;;;;;;;;5016600;28;20251;-54
2023/07/06 13:05:36;;;;;;;2.35;1.48;;;;;;;;;;5017042;28;20681;-54
2023/07/06 13:08:08;;;;;;;1.85;1.38;;;;;;;;;;5020841;28;20180;-54
2023/07/06 13:10:36;;;;;;;2.25;1.40;;;;;;;;;;5015845;28;20456;-54
2023/07/06 13:13:06;;;;;;;1.58;1.45;;;;;;;;;;5010563;28;20164;-54
2023/07/06 13:15:40;;;;;;;1.45;1.20;;;;;;;;;;5016963;28;20219;-54
2023/07/06 13:18:13;;;;;;;3.47;1.67;;;;;;;;;;5016938;28;20184;-54
2023/07/06 13:20:41;;;;;;;1.40;1.25;;;;;;;;;;5016809;28;20263;-54
2023/07/06 13:23:08;;;;;;;2.30;1.20;;;;;;;;;;5016515;28;20200;-54
2023/07/06 13:25:39;;;;;;;3.45;1.65;;;;;;;;;;5016523;28;20204;-54
2023/07/06 13:28:06;;;;;;;3.75;1.40;;;;;;;;;;5015833;28;20192;-54
2023/07/06 13:30:32;;;;;;;3.40;1.33;;;;;;;;;;5016516;28;20302;-54
2023/07/06 13:32:58;;;;;;;1.92;1.58;;;;;;;;;;5016035;28;20263;-54
2023/07/06 13:35:24;;;;;;;1.95;1.55;;;;;;;;;;5016395;28;20185;-54
2023/07/06 13:37:49;;;;;;;1.88;1.27;;;;;;;;;;5017156;28;20191;-54
2023/07/06 13:40:17;;;;;;;1.77;1.23;;;;;;;;;;5016308;28;20184;-54
2023/07/06 13:42:45;;;;;;;1.80;1.15;;;;;;;;;;5016362;28;20544;-54
2023/07/06 13:45:17;;;;;;;2.22;1.52;;;;;;;;;;5015714;28;20208;-54
2023/07/06 13:47:44;;;;;;;4.03;1.58;;;;;;;;;;5007467;28;20183;-55
2023/07/06 13:50:11;;;;;;;2.28;1.20;;;;;;;;;;5016073;28;20201;-55
2023/07/06 13:52:38;;;;;;;1.90;1.08;;;;;;;;;;5016208;28;20226;-54
2023/07/06 13:55:12;;;;;;;3.42;1.67;;;;;;;;;;5016640;28;20214;-54
2023/07/06 13:57:41;;;;;;;2.10;1.42;;;;;;;;;;5021808;28;20694;-54
2023/07/06 14:00:09;;;;;;;2.83;1.40;;;;;;;;;;5015102;28;20195;-54
2023/07/06 14:02:35;;;;;;;3.70;1.55;;;;;;;;;;5014849;28;20681;-54
2023/07/06 14:05:01;;;;;;;2.05;1.45;;;;;;;;;;5015805;28;20208;-55
2023/07/06 14:07:27;;;;;;;1.48;1.35;;;;;;;;;;5015025;28;20188;-55
2023/07/06 14:09:53;;;;;;;1.20;1.02;;;;;;;;;;5015602;28;20176;-55
2023/07/06 14:12:21;;;;;;;2.65;1.63;;;;;;;;;;5015729;28;20187;-55
2023/07/06 14:14:47;;;;;;;1.77;1.40;;;;;;;;;;5015290;28;20238;-54
2023/07/06 14:17:12;;;;;;;1.88;1.55;;;;;;;;;;5015419;28;20196;-55
2023/07/06 14:19:39;;;;;;;1.60;1.05;;;;;;;;;;5015525;28;20193;-54
2023/07/06 14:22:05;;;;;;;1.75;1.27;;;;;;;;;;5015160;28;20192;-54
2023/07/06 14:24:31;;;;;;;1.83;1.33;;;;;;;;;;5015937;28;20657;-54
2023/07/06 14:26:57;;;;;;;2.25;1.25;;;;;;;;;;5019500;28;20187;-54
2023/07/06 14:29:26;;;;;;;2.40;1.40;;;;;;;;;;5014918;28;20673;-54
2023/07/06 14:31:53;;;;;;;1.98;1.40;;;;;;;;;;5016153;28;20199;-54
2023/07/06 14:34:22;;;;;;;1.30;1.20;;;;;;;;;;5021289;28;20180;-54
2023/07/06 14:36:48;;;;;;;2.28;1.40;;;;;;;;;;5015014;28;20234;-54
2023/07/06 14:39:14;;;;;;;2.85;1.40;;;;;;;;;;5015604;28;20489;-55
2023/07/06 14:41:40;;;;;;;3.88;1.17;;;;;;;;;;5015040;28;20192;-54
2023/07/06 14:44:06;;;;;;;2.05;1.60;;;;;;;;;;5015118;28;20188;-55
2023/07/06 14:46:32;;;;;;;4.00;1.40;;;;;;;;;;5018373;28;20230;-55
2023/07/06 14:48:58;;;;;;;2.05;1.45;;;;;;;;;;5014986;28;20168;-54
2023/07/06 14:51:25;;;;;;;1.95;1.63;;;;;;;;;;4994330;28;20497;-54
2023/07/06 14:53:51;;;;;;;2.78;1.17;;;;;;;;;;5012706;28;20172;-54